createdAt,value
2022-08-11T00:01:10.638Z,18.90
2022-08-11T00:03:45.733Z,19.00
2022-08-11T00:06:24.235Z,19.00
2022-08-11T00:08:53.703Z,18.90
2022-08-11T00:11:23.849Z,18.80
2022-08-11T00:13:56.185Z,18.80
2022-08-11T00:16:26.363Z,18.70
2022-08-11T00:18:56.773Z,18.70
2022-08-11T00:22:01.844Z,18.60
2022-08-11T00:24:18.768Z,18.50
2022-08-11T00:26:50.280Z,18.50
2022-08-11T00:29:19.359Z,18.30
2022-08-11T00:31:50.742Z,18.20
2022-08-11T00:34:22.967Z,18.10
2022-08-11T00:36:56.571Z,18.10
2022-08-11T00:39:28.695Z,18.20
2022-08-11T00:42:11.023Z,18.20
2022-08-11T00:44:49.202Z,18.20
2022-08-11T00:47:25.141Z,18.20
2022-08-11T00:50:06.020Z,18.10
2022-08-11T00:52:59.072Z,18.10
2022-08-11T00:56:09.769Z,18.00
2022-08-11T00:59:34.481Z,18.00
2022-08-11T01:02:18.235Z,18.00
2022-08-11T01:05:29.313Z,18.00
2022-08-11T01:08:43.200Z,17.90
2022-08-11T01:12:03.522Z,17.90
2022-08-11T01:15:06.860Z,17.80
2022-08-11T01:18:11.531Z,17.90
2022-08-11T01:21:10.605Z,17.90
2022-08-11T01:24:27.268Z,17.80
2022-08-11T01:27:22.714Z,17.70
2022-08-11T01:30:18.760Z,17.70
2022-08-11T01:33:14.800Z,17.50
2022-08-11T01:36:15.572Z,17.40
2022-08-11T01:39:22.689Z,17.40
2022-08-11T01:42:33.965Z,17.40
2022-08-11T01:45:18.104Z,17.40
2022-08-11T01:47:54.557Z,17.40
2022-08-11T01:50:36.841Z,17.30
2022-08-11T01:53:17.032Z,17.30
2022-08-11T01:55:57.410Z,17.30
2022-08-11T01:58:43.527Z,17.30
2022-08-11T02:01:26.880Z,17.20
2022-08-11T02:04:00.673Z,17.20
2022-08-11T02:06:58.337Z,17.20
2022-08-11T02:10:00.256Z,17.20
2022-08-11T02:12:52.346Z,17.20
2022-08-11T02:15:29.729Z,17.10
2022-08-11T02:18:09.414Z,17.00
2022-08-11T02:21:18.503Z,17.00
2022-08-11T02:24:04.912Z,16.90
2022-08-11T02:26:42.218Z,16.90
2022-08-11T02:29:17.994Z,16.90
2022-08-11T02:32:33.793Z,16.90
2022-08-11T02:35:11.293Z,16.80
2022-08-11T02:37:49.845Z,16.80
2022-08-11T02:40:25.636Z,16.80
2022-08-11T02:43:07.062Z,16.70
2022-08-11T02:45:55.672Z,16.70
2022-08-11T02:48:55.342Z,16.70
2022-08-11T02:51:34.589Z,16.70
2022-08-11T02:54:12.098Z,16.70
2022-08-11T02:56:52.363Z,16.70
2022-08-11T02:59:53.739Z,16.80
2022-08-11T03:02:35.050Z,16.80
2022-08-11T03:05:14.163Z,16.70
2022-08-11T03:07:52.893Z,16.60
2022-08-11T03:10:24.706Z,16.60
2022-08-11T03:13:31.181Z,16.50
2022-08-11T03:16:31.945Z,16.50
2022-08-11T03:19:13.088Z,16.40
2022-08-11T03:22:02.868Z,16.50
2022-08-11T03:24:46.563Z,16.40
2022-08-11T03:27:36.779Z,16.30
2022-08-11T03:30:14.454Z,16.20
2022-08-11T03:33:26.916Z,16.30
2022-08-11T03:36:10.890Z,16.30
2022-08-11T03:38:57.756Z,16.40
2022-08-11T03:42:03.368Z,16.40
2022-08-11T03:44:53.444Z,16.40
2022-08-11T03:47:52.585Z,16.20
2022-08-11T03:51:03.996Z,16.10
2022-08-11T03:53:57.109Z,16.00
2022-08-11T03:57:04.810Z,16.00
2022-08-11T04:00:09.248Z,16.10
2022-08-11T04:03:10.208Z,16.00
2022-08-11T04:06:15.009Z,16.00
2022-08-11T04:09:24.933Z,16.10
2022-08-11T04:12:38.098Z,16.10
2022-08-11T04:15:55.459Z,16.00
2022-08-11T04:18:42.743Z,16.00
2022-08-11T04:21:37.923Z,16.00
2022-08-11T04:24:48.361Z,16.00
2022-08-11T04:27:58.802Z,16.00
2022-08-11T04:30:32.164Z,16.00
2022-08-11T04:33:35.000Z,16.00
2022-08-11T04:36:44.437Z,15.80
2022-08-11T04:39:23.466Z,15.90
2022-08-11T04:42:37.937Z,15.70
2022-08-11T04:45:37.287Z,15.80
2022-08-11T04:48:41.171Z,15.80
2022-08-11T04:51:51.003Z,15.70
2022-08-11T04:54:47.632Z,15.60
2022-08-11T04:57:49.830Z,15.60
2022-08-11T05:00:37.412Z,15.70
2022-08-11T05:03:45.197Z,15.70
2022-08-11T05:06:48.710Z,15.70
2022-08-11T05:09:52.670Z,15.80
2022-08-11T05:12:44.411Z,15.80
2022-08-11T05:15:32.865Z,15.80
2022-08-11T05:18:35.186Z,15.90
2022-08-11T05:21:26.379Z,16.00
2022-08-11T05:24:17.014Z,16.10
2022-08-11T05:27:12.880Z,16.20
2022-08-11T05:30:05.690Z,16.20
2022-08-11T05:33:00.892Z,16.30
2022-08-11T05:36:01.857Z,16.20
2022-08-11T05:38:44.004Z,16.30
2022-08-11T05:41:30.980Z,16.30
2022-08-11T05:44:20.653Z,16.40
2022-08-11T05:47:09.620Z,16.40
2022-08-11T05:49:58.063Z,16.50
2022-08-11T05:52:49.047Z,16.60
2022-08-11T05:56:02.468Z,16.70
2022-08-11T05:58:41.733Z,16.80
2022-08-11T06:01:12.958Z,16.90
2022-08-11T06:04:04.062Z,16.90
2022-08-11T06:06:33.350Z,17.10
2022-08-11T06:09:02.955Z,17.10
2022-08-11T06:11:43.603Z,17.20
2022-08-11T06:14:15.575Z,17.20
2022-08-11T06:16:48.232Z,17.30
2022-08-11T06:19:21.260Z,17.30
2022-08-11T06:21:53.243Z,17.40
2022-08-11T06:24:22.449Z,17.50
2022-08-11T06:29:54.783Z,17.60
2022-08-11T06:32:29.013Z,17.70
2022-08-11T06:35:19.912Z,17.80
2022-08-11T06:38:03.577Z,17.90
2022-08-11T06:40:39.982Z,18.00
2022-08-11T06:43:17.052Z,18.10
2022-08-11T06:45:54.256Z,18.20
2022-08-11T06:48:26.152Z,18.30
2022-08-11T06:51:13.453Z,18.40
2022-08-11T06:54:03.548Z,18.50
2022-08-11T06:57:25.966Z,18.50
2022-08-11T07:00:02.101Z,18.60
2022-08-11T07:02:35.031Z,18.80
2022-08-11T07:05:08.682Z,18.90
2022-08-11T07:08:34.641Z,19.10
2022-08-11T07:11:52.799Z,19.10
2022-08-11T07:14:43.428Z,19.30
2022-08-11T07:17:17.403Z,19.50
2022-08-11T07:20:14.207Z,19.60
2022-08-11T07:23:06.512Z,19.70
2022-08-11T07:26:10.329Z,19.80
2022-08-11T07:28:59.291Z,20.00
2022-08-11T07:31:35.926Z,20.10
2022-08-11T07:34:21.495Z,20.30
2022-08-11T07:36:54.168Z,20.40
2022-08-11T07:39:27.700Z,20.60
2022-08-11T07:42:00.536Z,20.70
2022-08-11T07:44:34.839Z,20.90
2022-08-11T07:47:21.744Z,21.00
2022-08-11T07:50:09.318Z,21.10
2022-08-11T07:52:40.564Z,21.20
2022-08-11T07:55:15.606Z,21.50
2022-08-11T07:58:16.395Z,21.60
2022-08-11T08:01:10.102Z,21.70
2022-08-11T08:03:59.513Z,22.00
2022-08-11T08:06:47.676Z,22.00
2022-08-11T08:09:37.246Z,22.20
2022-08-11T08:12:27.669Z,22.40
2022-08-11T08:15:15.849Z,22.60
2022-08-11T08:18:09.744Z,22.80
2022-08-11T08:20:49.846Z,23.00
2022-08-11T08:23:33.534Z,23.20
2022-08-11T08:26:05.709Z,23.40
2022-08-11T08:28:46.663Z,23.50
2022-08-11T08:31:15.356Z,23.60
2022-08-11T08:33:44.781Z,23.60
2022-08-11T08:36:15.514Z,23.70
2022-08-11T08:38:49.574Z,23.90
2022-08-11T08:41:23.253Z,24.20
2022-08-11T08:44:05.946Z,24.30
2022-08-11T08:46:47.457Z,24.40
2022-08-11T08:49:19.376Z,24.70
2022-08-11T08:51:58.626Z,24.80
2022-08-11T08:54:35.562Z,24.90
2022-08-11T08:57:06.271Z,25.10
2022-08-11T08:59:49.135Z,25.20
2022-08-11T09:02:33.625Z,25.40
2022-08-11T09:05:05.865Z,25.60
2022-08-11T09:07:39.797Z,25.50
2022-08-11T09:10:11.223Z,25.70
2022-08-11T09:12:42.844Z,25.90
2022-08-11T09:15:15.054Z,26.00
2022-08-11T09:17:50.228Z,26.00
2022-08-11T09:20:21.289Z,26.00
2022-08-11T09:26:18.667Z,26.40
2022-08-11T09:28:49.782Z,26.50
2022-08-11T09:31:22.743Z,26.80
2022-08-11T09:33:55.124Z,27.00
2022-08-11T09:36:41.635Z,27.10
2022-08-11T09:39:31.222Z,27.10
2022-08-11T09:42:03.457Z,27.20
2022-08-11T09:44:49.548Z,27.40
2022-08-11T09:47:25.470Z,27.60
2022-08-11T09:50:00.385Z,27.70
2022-08-11T09:52:33.464Z,27.80
2022-08-11T09:55:05.108Z,28.00
2022-08-11T09:57:51.229Z,28.20
2022-08-11T10:00:21.778Z,28.30
2022-08-11T10:02:53.584Z,28.40
2022-08-11T10:05:40.564Z,28.60
2022-08-11T10:08:13.294Z,28.90
2022-08-11T10:10:43.059Z,29.00
2022-08-11T10:14:31.915Z,29.10
2022-08-11T10:16:15.940Z,29.20
2022-08-11T10:18:53.368Z,29.20
2022-08-11T10:21:29.222Z,29.60
2022-08-11T10:24:17.821Z,29.70
2022-08-11T10:26:54.864Z,29.50
2022-08-11T10:29:45.253Z,29.60
2022-08-11T10:32:46.383Z,29.70
2022-08-11T10:35:30.640Z,29.80
2022-08-11T10:38:06.863Z,29.90
2022-08-11T10:40:41.525Z,30.00
2022-08-11T10:43:14.362Z,30.20
2022-08-11T10:46:04.926Z,30.10
2022-08-11T10:48:39.118Z,30.10
2022-08-11T10:51:15.455Z,30.30
2022-08-11T10:54:12.348Z,30.60
2022-08-11T10:56:59.949Z,30.90
2022-08-11T10:59:30.453Z,30.90
2022-08-11T11:02:01.558Z,30.90
2022-08-11T11:04:40.856Z,31.10
2022-08-11T11:07:19.873Z,31.30
2022-08-11T11:09:51.680Z,31.40
2022-08-11T11:12:43.052Z,31.40
2022-08-11T11:15:31.442Z,31.40
2022-08-11T11:18:06.338Z,31.40
2022-08-11T11:20:43.713Z,31.40
2022-08-11T11:23:21.067Z,31.40
2022-08-11T11:26:31.525Z,31.60
2022-08-11T11:29:26.436Z,31.40
2022-08-11T11:32:10.779Z,31.50
2022-08-11T11:35:05.773Z,31.60
2022-08-11T11:37:36.338Z,31.60
2022-08-11T11:40:11.613Z,31.70
2022-08-11T11:42:41.873Z,32.00
2022-08-11T11:45:14.986Z,32.00
2022-08-11T11:47:55.171Z,32.10
2022-08-11T11:50:25.750Z,31.90
2022-08-11T11:53:02.422Z,32.00
2022-08-11T11:55:32.804Z,32.20
2022-08-11T11:58:22.115Z,32.40
2022-08-11T12:01:10.863Z,32.40
2022-08-11T12:03:41.913Z,32.80
2022-08-11T12:06:14.249Z,32.90
2022-08-11T12:08:44.908Z,32.80
2022-08-11T12:11:33.885Z,32.70
2022-08-11T12:14:10.567Z,32.70
2022-08-11T12:16:41.320Z,32.40
2022-08-11T12:19:14.516Z,32.50
2022-08-11T12:22:05.091Z,32.30
2022-08-11T12:24:54.423Z,32.30
2022-08-11T12:27:27.719Z,32.50
2022-08-11T12:29:59.213Z,32.70
2022-08-11T12:32:33.197Z,32.60
2022-08-11T12:35:02.377Z,32.50
2022-08-11T12:37:40.230Z,32.80
2022-08-11T12:41:11.204Z,33.10
2022-08-11T12:43:42.849Z,33.50
2022-08-11T12:46:15.458Z,33.20
2022-08-11T12:49:04.581Z,33.20
2022-08-11T12:52:00.731Z,32.90
2022-08-11T12:54:52.717Z,33.40
2022-08-11T12:57:46.663Z,33.90
2022-08-11T13:00:37.433Z,34.00
2022-08-11T13:03:28.830Z,34.30
2022-08-11T13:06:00.668Z,34.70
2022-08-11T13:08:32.709Z,34.60
2022-08-11T13:11:24.896Z,34.40
2022-08-11T13:14:15.269Z,34.00
2022-08-11T13:17:05.021Z,33.70
2022-08-11T13:19:34.907Z,33.70
2022-08-11T13:22:07.489Z,33.70
2022-08-11T13:24:37.861Z,33.60
2022-08-11T13:27:07.215Z,33.70
2022-08-11T13:29:37.013Z,34.00
2022-08-11T13:32:07.888Z,34.00
2022-08-11T13:34:41.655Z,33.80
2022-08-11T13:37:14.507Z,34.00
2022-08-11T13:39:47.441Z,33.80
2022-08-11T13:42:20.311Z,34.20
2022-08-11T13:44:49.478Z,34.80
2022-08-11T13:47:22.313Z,35.10
2022-08-11T13:49:52.189Z,35.80
2022-08-11T13:52:21.588Z,35.70
2022-08-11T13:54:53.279Z,34.70
2022-08-11T13:58:08.649Z,34.40
2022-08-11T14:00:25.035Z,34.70
2022-08-11T14:02:58.887Z,34.60
2022-08-11T14:05:29.861Z,34.40
2022-08-11T14:08:02.292Z,34.30
2022-08-11T14:10:33.429Z,34.80
2022-08-11T14:13:21.851Z,34.70
2022-08-11T14:15:53.022Z,34.80
2022-08-11T14:18:27.855Z,34.60
2022-08-11T14:21:16.475Z,34.40
2022-08-11T14:23:47.585Z,34.90
2022-08-11T14:26:26.370Z,34.90
2022-08-11T14:28:57.898Z,35.10
2022-08-11T14:31:28.436Z,35.30
2022-08-11T14:34:02.408Z,35.20
2022-08-11T14:36:35.090Z,35.40
2022-08-11T14:39:06.905Z,35.10
2022-08-11T14:42:11.399Z,34.90
2022-08-11T14:45:02.251Z,34.50
2022-08-11T14:47:33.692Z,34.30
2022-08-11T14:50:12.201Z,34.50
2022-08-11T14:52:48.353Z,34.30
2022-08-11T14:55:35.953Z,34.10
2022-08-11T14:58:05.367Z,34.50
2022-08-11T15:00:36.048Z,34.50
2022-08-11T15:03:11.903Z,34.50
2022-08-11T15:05:57.215Z,34.60
2022-08-11T15:08:48.906Z,34.70
2022-08-11T15:11:37.747Z,34.90
2022-08-11T15:14:08.764Z,34.60
2022-08-11T15:16:58.594Z,34.50
2022-08-11T15:19:40.366Z,34.80
2022-08-11T15:22:29.923Z,34.40
2022-08-11T15:25:00.256Z,34.30
2022-08-11T15:27:48.406Z,34.60
2022-08-11T15:30:35.662Z,34.90
2022-08-11T15:33:27.881Z,35.00
2022-08-11T15:36:15.469Z,34.90
2022-08-11T15:38:54.968Z,34.50
2022-08-11T15:41:46.112Z,34.40
2022-08-11T15:45:01.723Z,34.20
2022-08-11T15:47:37.762Z,34.20
2022-08-11T15:50:10.894Z,34.20
2022-08-11T15:52:51.023Z,34.10
2022-08-11T15:55:23.575Z,34.40
2022-08-11T15:58:11.076Z,34.90
2022-08-11T16:01:04.337Z,34.60
2022-08-11T16:04:15.375Z,34.20
2022-08-11T16:06:50.805Z,34.10
2022-08-11T16:09:25.881Z,34.10
2022-08-11T16:12:03.656Z,34.00
2022-08-11T16:14:54.956Z,33.90
2022-08-11T16:17:26.861Z,33.90
2022-08-11T16:19:57.941Z,33.80
2022-08-11T16:22:35.688Z,34.00
2022-08-11T16:26:30.662Z,34.00
2022-08-11T16:28:03.961Z,33.60
2022-08-11T16:30:33.449Z,33.30
2022-08-11T16:33:48.410Z,33.40
2022-08-11T16:36:12.465Z,33.30
2022-08-11T16:38:42.416Z,33.40
2022-08-11T16:41:14.871Z,33.60
2022-08-11T16:44:04.670Z,33.80
2022-08-11T16:46:51.754Z,34.00
2022-08-11T16:49:30.408Z,33.90
2022-08-11T16:52:05.425Z,33.40
2022-08-11T16:54:36.396Z,33.30
2022-08-11T16:57:27.011Z,33.30
2022-08-11T17:00:02.657Z,33.40
2022-08-11T17:02:53.577Z,33.70
2022-08-11T17:05:54.658Z,33.60
2022-08-11T17:08:54.260Z,33.50
2022-08-11T17:11:47.634Z,33.40
2022-08-11T17:14:35.537Z,33.30
2022-08-11T17:17:10.473Z,33.30
2022-08-11T17:20:41.922Z,33.40
2022-08-11T17:22:50.046Z,33.60
2022-08-11T17:25:20.492Z,34.00
2022-08-11T17:27:49.763Z,34.30
2022-08-11T17:30:18.541Z,34.50
2022-08-11T17:33:09.136Z,34.60
2022-08-11T17:35:41.641Z,34.70
2022-08-11T17:38:13.775Z,34.70
2022-08-11T17:41:05.022Z,34.70
2022-08-11T17:43:52.181Z,34.50
2022-08-11T17:46:38.760Z,34.30
2022-08-11T17:49:11.313Z,33.90
2022-08-11T17:51:59.282Z,33.80
2022-08-11T17:54:46.045Z,33.90
2022-08-11T17:57:33.716Z,33.80
2022-08-11T18:00:03.731Z,32.80
2022-08-11T18:02:52.761Z,31.80
2022-08-11T18:05:29.071Z,31.10
2022-08-11T18:08:17.928Z,30.70
2022-08-11T18:11:04.892Z,30.50
2022-08-11T18:13:53.909Z,30.30
2022-08-11T18:16:40.529Z,30.00
2022-08-11T18:19:27.610Z,29.80
2022-08-11T18:22:24.350Z,29.50
2022-08-11T18:25:14.176Z,29.30
2022-08-11T18:28:04.796Z,29.10
2022-08-11T18:31:03.810Z,29.00
2022-08-11T18:34:07.007Z,28.90
2022-08-11T18:36:56.924Z,28.80
2022-08-11T18:39:56.015Z,28.60
2022-08-11T18:42:45.970Z,28.40
2022-08-11T18:45:46.116Z,28.30
2022-08-11T18:48:35.937Z,28.20
2022-08-11T18:51:31.586Z,28.10
2022-08-11T18:54:28.166Z,27.90
2022-08-11T18:57:19.934Z,27.80
2022-08-11T19:00:08.525Z,27.60
2022-08-11T19:02:57.540Z,27.50
2022-08-11T19:06:32.205Z,27.30
2022-08-11T19:08:55.958Z,27.20
2022-08-11T19:11:44.881Z,27.10
2022-08-11T19:14:33.603Z,26.90
2022-08-11T19:17:43.612Z,26.80
2022-08-11T19:20:31.751Z,26.70
2022-08-11T19:23:20.949Z,26.50
2022-08-11T19:26:08.171Z,26.40
2022-08-11T19:28:57.206Z,26.20
2022-08-11T19:31:45.461Z,26.20
2022-08-11T19:34:34.138Z,26.00
2022-08-11T19:37:24.303Z,25.90
2022-08-11T19:40:11.926Z,25.90
2022-08-11T19:42:59.869Z,25.80
2022-08-11T19:45:52.638Z,25.70
2022-08-11T19:48:42.804Z,25.60
2022-08-11T19:51:30.240Z,25.50
2022-08-11T19:54:18.149Z,25.50
2022-08-11T19:57:05.633Z,25.40
2022-08-11T19:59:53.145Z,25.20
2022-08-11T20:02:39.813Z,25.20
2022-08-11T20:05:28.315Z,25.10
2022-08-11T20:08:18.646Z,25.00
2022-08-11T20:11:06.146Z,24.90
2022-08-11T20:13:54.268Z,24.90
2022-08-11T20:16:42.259Z,24.80
2022-08-11T20:19:55.498Z,24.70
2022-08-11T20:22:37.307Z,24.60
2022-08-11T20:25:24.846Z,24.50
2022-08-11T20:28:12.281Z,24.50
2022-08-11T20:30:59.203Z,24.40
2022-08-11T20:33:45.392Z,24.30
2022-08-11T20:36:32.757Z,24.20
2022-08-11T20:39:20.853Z,24.20
2022-08-11T20:42:08.408Z,24.10
2022-08-11T20:44:57.812Z,24.00
2022-08-11T20:47:59.206Z,24.00
2022-08-11T20:50:47.868Z,23.90
2022-08-11T20:53:39.088Z,23.80
2022-08-11T20:56:30.119Z,23.70
2022-08-11T20:59:18.129Z,23.60
2022-08-11T21:02:09.831Z,23.60
2022-08-11T21:04:57.804Z,23.50
2022-08-11T21:07:55.424Z,23.40
2022-08-11T21:10:51.433Z,23.30
2022-08-11T21:13:43.726Z,23.40
2022-08-11T21:16:35.759Z,23.20
2022-08-11T21:20:01.201Z,23.20
2022-08-11T21:22:38.314Z,23.20
2022-08-11T21:25:29.252Z,23.10
2022-08-11T21:28:20.876Z,23.00
2022-08-11T21:31:10.250Z,23.00
2022-08-11T21:33:58.891Z,22.90
2022-08-11T21:36:46.424Z,22.80
2022-08-11T21:39:37.917Z,22.70
2022-08-11T21:42:25.437Z,22.60
2022-08-11T21:45:14.388Z,22.60
2022-08-11T21:48:03.635Z,22.60
2022-08-11T21:50:49.583Z,22.50
2022-08-11T21:53:38.021Z,22.50
2022-08-11T21:56:27.647Z,22.40
2022-08-11T21:59:16.307Z,22.30
2022-08-11T22:02:03.238Z,22.30
2022-08-11T22:04:52.048Z,22.20
2022-08-11T22:07:40.979Z,22.20
2022-08-11T22:10:41.933Z,22.10
2022-08-11T22:13:30.374Z,22.10
2022-08-11T22:16:17.430Z,22.10
2022-08-11T22:19:04.890Z,22.00
2022-08-11T22:22:03.492Z,22.00
2022-08-11T22:24:52.913Z,22.00
2022-08-11T22:27:40.152Z,22.00
2022-08-11T22:30:28.229Z,22.00
2022-08-11T22:33:16.679Z,22.00
2022-08-11T22:36:04.252Z,22.00
2022-08-11T22:38:52.636Z,21.90
2022-08-11T22:41:39.851Z,21.90
2022-08-11T22:44:26.188Z,21.90
2022-08-11T22:47:14.163Z,21.80
2022-08-11T22:50:09.495Z,21.80
2022-08-11T22:52:56.246Z,21.60
2022-08-11T22:55:44.732Z,21.50
2022-08-11T22:58:32.579Z,21.50
2022-08-11T23:01:19.398Z,21.40
2022-08-11T23:04:06.095Z,21.40
2022-08-11T23:06:53.733Z,21.30
2022-08-11T23:09:41.932Z,21.20
2022-08-11T23:12:29.890Z,21.10
2022-08-11T23:15:18.427Z,21.00
2022-08-11T23:18:05.025Z,21.00
2022-08-11T23:20:54.592Z,21.00
2022-08-11T23:23:43.318Z,20.90
2022-08-11T23:26:30.141Z,20.90
2022-08-11T23:29:21.855Z,20.80
2022-08-11T23:32:11.252Z,20.60
2022-08-11T23:35:37.277Z,20.60
2022-08-11T23:38:05.918Z,20.60
2022-08-11T23:40:51.989Z,20.50
2022-08-11T23:43:39.122Z,20.40
2022-08-11T23:46:29.450Z,20.40
2022-08-11T23:49:19.844Z,20.40
2022-08-11T23:52:07.293Z,20.30
2022-08-11T23:54:54.541Z,20.30
2022-08-11T23:57:47.823Z,20.30
